Time;durP1;ratioP1;P1;durP2;ratioP2;P2;SDS_P1;SDS_P2;PMS_P1;PMS_P2;Temp;Humidity;BMP_temperature;BMP_pressure;BME280_temperature;BME280_humidity;BME280_pressure;Samples;Min_cycle;Max_cycle;Signal;HPM_P1;HPM_P2
2023/08/02 00:00:27;;;;;;;;;;;;;;;20.24;67.32;99482.41;5420139;32;34671;-90
2023/08/02 00:03:29;;;;;;;;;;;;;;;21.06;63.79;99510.28;5408680;32;34823;-88
2023/08/02 00:06:31;;;;;;;;;;;;;;;20.89;65.78;99500.38;5410377;32;34568;-88
2023/08/02 00:09:33;;;;;;;;;;;;;;;21.49;61.69;99479.38;5417925;32;36143;-88
2023/08/02 00:12:35;;;;;;;;;;;;;;;20.91;64.23;99488.53;5411448;32;35543;-88
2023/08/02 00:15:38;;;;;;;;;;;;;;;20.22;67.59;99491.53;5417152;32;34876;-88
2023/08/02 00:18:40;;;;;;;;;;;;;;;20.82;64.65;99500.97;5408797;32;35449;-88
2023/08/02 00:21:42;;;;;;;;;;;;;;;20.25;66.17;99497.44;5401441;32;34941;-89
2023/08/02 00:24:46;;;;;;;;;;;;;;;21.28;63.37;99509.03;5415982;32;34853;-90
2023/08/02 00:27:48;;;;;;;;;;;;;;;20.50;65.07;99525.38;5407316;32;35755;-90
2023/08/02 00:30:50;;;;;;;;;;;;;;;20.88;63.75;99544.09;5420773;32;34403;-88
2023/08/02 00:33:52;;;;;;;;;;;;;;;20.21;65.67;99549.38;5413299;32;34208;-89
2023/08/02 00:36:54;;;;;;;;;;;;;;;20.00;66.96;99549.53;5400698;32;34829;-89
2023/08/02 00:39:56;;;;;;;;;;;;;;;20.03;67.11;99545.78;5410564;32;34687;-89
2023/08/02 00:42:58;;;;;;;;;;;;;;;20.47;65.42;99546.16;5410238;32;33741;-89
2023/08/02 00:46:00;;;;;;;;;;;;;;;20.14;65.60;99544.75;5420649;32;36036;-89
2023/08/02 00:49:02;;;;;;;;;;;;;;;20.23;66.54;99549.25;5413527;32;34156;-88
2023/08/02 00:52:05;;;;;;;;;;;;;;;20.09;66.38;99547.84;5415733;32;35537;-88
2023/08/02 00:55:07;;;;;;;;;;;;;;;20.55;64.35;99538.28;5417940;32;35817;-89
2023/08/02 00:58:09;;;;;;;;;;;;;;;20.14;65.87;99534.09;5415237;32;34850;-88
2023/08/02 01:01:11;;;;;;;;;;;;;;;19.90;67.39;99532.72;5400404;32;34461;-88
2023/08/02 01:04:15;;;;;;;;;;;;;;;19.63;68.24;99530.69;5421143;32;35016;-92
2023/08/02 01:07:32;;;;;;;;;;;;;;;19.69;69.51;99534.63;5424850;32;33846;-88
2023/08/02 01:10:34;;;;;;;;;;;;;;;20.25;66.18;99532.12;5413336;32;34431;-90
2023/08/02 01:13:36;;;;;;;;;;;;;;;20.03;67.96;99540.44;5410001;32;35700;-89
2023/08/02 01:16:38;;;;;;;;;;;;;;;20.00;68.02;99546.88;5400579;32;35108;-88
2023/08/02 01:19:42;;;;;;;;;;;;;;;19.70;69.65;99554.97;5415458;32;34586;-89
2023/08/02 01:22:44;;;;;;;;;;;;;;;20.13;68.44;99545.75;5428663;32;34713;-90
2023/08/02 01:25:46;;;;;;;;;;;;;;;19.38;73.13;99550.69;5415072;32;34792;-90
2023/08/02 01:28:50;;;;;;;;;;;;;;;19.10;74.44;99562.09;5423452;32;34801;-88
2023/08/02 01:31:51;;;;;;;;;;;;;;;19.63;71.98;99557.34;5413777;32;34130;-87
2023/08/02 01:34:53;;;;;;;;;;;;;;;20.44;69.00;99557.09;5411618;32;35506;-89
2023/08/02 01:37:56;;;;;;;;;;;;;;;19.79;71.02;99559.50;5413792;32;36732;-89
2023/08/02 01:40:58;;;;;;;;;;;;;;;19.31;73.32;99565.53;5416793;32;34206;-89
2023/08/02 01:44:00;;;;;;;;;;;;;;;19.38;73.52;99564.00;5421800;32;35926;-88
2023/08/02 01:47:02;;;;;;;;;;;;;;;19.60;72.22;99556.81;5418583;32;34388;-87
2023/08/02 01:50:05;;;;;;;;;;;;;;;19.49;73.47;99569.22;5414912;32;35169;-87
2023/08/02 01:53:06;;;;;;;;;;;;;;;19.51;73.15;99562.91;5409796;32;34210;-90
2023/08/02 01:56:08;;;;;;;;;;;;;;;19.09;74.96;99563.06;5420965;32;35125;-89
2023/08/02 01:59:12;;;;;;;;;;;;;;;19.34;72.37;99559.09;5416146;32;34729;-88
2023/08/02 02:02:14;;;;;;;;;;;;;;;19.83;70.62;99568.03;5416280;32;34370;-89
2023/08/02 02:05:16;;;;;;;;;;;;;;;19.28;72.99;99576.47;5416332;32;36569;-90
2023/08/02 02:08:18;;;;;;;;;;;;;;;19.22;72.90;99571.69;5403474;32;35192;-90
2023/08/02 02:11:20;;;;;;;;;;;;;;;19.27;72.17;99580.09;5417589;32;36166;-90
2023/08/02 02:14:22;;;;;;;;;;;;;;;19.80;68.97;99579.84;5415903;32;34299;-88
2023/08/02 02:17:24;;;;;;;;;;;;;;;19.26;72.11;99574.94;5407379;32;34515;-90
2023/08/02 02:20:26;;;;;;;;;;;;;;;19.66;69.97;99570.44;5423707;32;34708;-88
2023/08/02 02:23:28;;;;;;;;;;;;;;;20.46;66.68;99573.84;5411808;32;36766;-89
2023/08/02 02:26:30;;;;;;;;;;;;;;;20.08;67.44;99569.31;5411536;32;35037;-88
2023/08/02 02:29:32;;;;;;;;;;;;;;;20.05;69.32;99574.97;5416622;32;34397;-87
2023/08/02 02:32:34;;;;;;;;;;;;;;;19.42;71.09;99583.22;5425300;32;35378;-88
2023/08/02 02:35:38;;;;;;;;;;;;;;;19.68;70.31;99579.13;5410868;32;34762;-89
2023/08/02 02:38:40;;;;;;;;;;;;;;;19.69;70.62;99579.97;5416657;32;34930;-88
2023/08/02 02:41:43;;;;;;;;;;;;;;;20.14;68.68;99582.09;5411950;32;34817;-88
2023/08/02 02:44:45;;;;;;;;;;;;;;;19.51;71.30;99589.56;5415053;32;35320;-87
2023/08/02 02:47:47;;;;;;;;;;;;;;;19.75;70.10;99585.59;5419515;32;35491;-87
2023/08/02 02:50:49;;;;;;;;;;;;;;;19.85;69.53;99585.62;5411842;32;35067;-88
2023/08/02 02:53:51;;;;;;;;;;;;;;;19.56;70.18;99576.66;5418942;32;34860;-88
2023/08/02 02:56:53;;;;;;;;;;;;;;;19.23;71.96;99589.34;5414115;32;35763;-88
2023/08/02 02:59:55;;;;;;;;;;;;;;;19.07;73.09;99595.19;5415945;32;35048;-87
2023/08/02 03:02:57;;;;;;;;;;;;;;;19.41;71.16;99592.22;5413117;32;35665;-87
2023/08/02 03:05:59;;;;;;;;;;;;;;;19.68;70.20;99597.78;5415810;32;35356;-87
2023/08/02 03:09:01;;;;;;;;;;;;;;;19.58;71.01;99604.94;5424702;32;36477;-89
2023/08/02 03:12:03;;;;;;;;;;;;;;;19.79;70.88;99612.81;5412687;32;35112;-89
2023/08/02 03:15:05;;;;;;;;;;;;;;;19.33;72.67;99613.37;5413910;32;34681;-88
2023/08/02 03:18:07;;;;;;;;;;;;;;;19.72;71.27;99612.53;5413486;32;34973;-88
2023/08/02 03:21:11;;;;;;;;;;;;;;;19.82;69.25;99609.88;5417943;32;34091;-89
2023/08/02 03:24:13;;;;;;;;;;;;;;;19.67;69.98;99620.09;5417606;32;35166;-88
2023/08/02 03:30:38;;;;;;;;;;;;;;;19.35;71.51;99630.91;5424357;32;35481;-88
2023/08/02 03:33:41;;;;;;;;;;;;;;;19.57;71.96;99623.66;5428046;32;35290;-88
2023/08/02 03:36:43;;;;;;;;;;;;;;;19.93;69.55;99633.75;5431386;32;35358;-88
2023/08/02 03:39:45;;;;;;;;;;;;;;;20.06;69.09;99632.66;5414860;32;34910;-87
2023/08/02 03:42:48;;;;;;;;;;;;;;;19.15;72.15;99645.94;5419094;32;35452;-87
2023/08/02 03:45:50;;;;;;;;;;;;;;;19.72;69.97;99654.34;5412244;32;34939;-88
2023/08/02 03:48:52;;;;;;;;;;;;;;;19.94;69.37;99662.09;5416103;32;35087;-88
2023/08/02 03:51:54;;;;;;;;;;;;;;;19.68;70.60;99656.44;5419925;32;34942;-88
2023/08/02 03:54:56;;;;;;;;;;;;;;;20.05;68.46;99646.97;5419174;32;35066;-87
2023/08/02 03:57:58;;;;;;;;;;;;;;;19.12;71.71;99648.00;5422252;32;35093;-87
2023/08/02 04:01:00;;;;;;;;;;;;;;;19.39;71.57;99652.78;5421885;32;35785;-87
2023/08/02 04:04:02;;;;;;;;;;;;;;;19.54;71.01;99645.28;5424864;32;34461;-87
2023/08/02 04:07:04;;;;;;;;;;;;;;;18.83;73.69;99646.03;5420923;32;34482;-89
2023/08/02 04:10:06;;;;;;;;;;;;;;;19.04;73.05;99648.69;5422651;32;35682;-87
2023/08/02 04:13:08;;;;;;;;;;;;;;;19.19;72.68;99650.03;5417516;32;34996;-88
2023/08/02 04:16:11;;;;;;;;;;;;;;;19.88;70.03;99649.31;5417776;32;33815;-87
2023/08/02 04:19:13;;;;;;;;;;;;;;;20.11;68.35;99652.59;5417415;32;37316;-87
2023/08/02 04:22:15;;;;;;;;;;;;;;;19.68;70.13;99651.09;5418975;32;34828;-87
2023/08/02 04:25:17;;;;;;;;;;;;;;;19.73;69.94;99648.03;5415893;32;34818;-87
2023/08/02 04:28:19;;;;;;;;;;;;;;;20.09;69.04;99654.53;5420726;32;35748;-87
2023/08/02 04:31:22;;;;;;;;;;;;;;;20.42;67.25;99658.66;5420110;32;35738;-88
2023/08/02 04:34:24;;;;;;;;;;;;;;;20.21;68.27;99663.25;5415718;32;35441;-87
2023/08/02 04:37:26;;;;;;;;;;;;;;;20.77;66.15;99673.28;5417077;32;35360;-88
2023/08/02 04:40:28;;;;;;;;;;;;;;;20.55;66.60;99666.41;5419770;32;34967;-88
2023/08/02 04:43:30;;;;;;;;;;;;;;;20.90;65.00;99657.78;5418270;32;35491;-87
2023/08/02 04:46:32;;;;;;;;;;;;;;;20.51;66.08;99657.00;5424202;32;34278;-88
2023/08/02 04:49:37;;;;;;;;;;;;;;;20.41;66.74;99656.94;5423407;32;35192;-87
2023/08/02 04:52:39;;;;;;;;;;;;;;;21.30;63.80;99660.25;5419503;32;36949;-88
2023/08/02 04:55:44;;;;;;;;;;;;;;;20.70;64.54;99656.97;5416256;32;34878;-87
2023/08/02 04:58:46;;;;;;;;;;;;;;;20.37;66.43;99658.22;5413812;32;35499;-88
2023/08/02 05:01:48;;;;;;;;;;;;;;;20.93;64.90;99652.19;5418102;32;36884;-88
2023/08/02 05:04:53;;;;;;;;;;;;;;;22.09;61.38;99665.09;5416181;32;35964;-89
2023/08/02 05:07:56;;;;;;;;;;;;;;;22.47;59.99;99646.19;5418013;32;34211;-88
2023/08/02 05:10:58;;;;;;;;;;;;;;;22.41;59.70;99650.31;5404546;32;34959;-88
2023/08/02 05:14:00;;;;;;;;;;;;;;;21.92;60.08;99660.53;5418215;32;35167;-88
2023/08/02 05:17:07;;;;;;;;;;;;;;;22.87;57.83;99649.25;5418612;32;35555;-88
2023/08/02 05:20:09;;;;;;;;;;;;;;;21.59;60.53;99662.81;5419051;32;35252;-88
2023/08/02 05:23:11;;;;;;;;;;;;;;;21.84;60.60;99665.78;5404974;32;35149;-87
2023/08/02 05:26:13;;;;;;;;;;;;;;;22.32;59.61;99661.97;5414082;32;36497;-87
2023/08/02 05:29:15;;;;;;;;;;;;;;;23.39;55.54;99659.97;5421879;32;34817;-88
2023/08/02 05:32:17;;;;;;;;;;;;;;;23.47;56.08;99651.09;5421460;32;34385;-87
2023/08/02 05:35:23;;;;;;;;;;;;;;;23.85;53.95;99649.78;5417374;32;35242;-88
2023/08/02 05:38:26;;;;;;;;;;;;;;;24.32;51.97;99647.34;5407494;32;34186;-88
2023/08/02 05:41:28;;;;;;;;;;;;;;;23.64;54.07;99652.06;5417905;32;34817;-89
2023/08/02 05:44:30;;;;;;;;;;;;;;;24.49;51.35;99652.78;5415976;32;34561;-88
2023/08/02 05:47:32;;;;;;;;;;;;;;;25.44;49.47;99661.06;5418729;32;35290;-89
2023/08/02 05:50:34;;;;;;;;;;;;;;;24.78;50.56;99653.09;5416668;32;34838;-88
2023/08/02 05:53:36;;;;;;;;;;;;;;;25.10;48.97;99662.19;5412646;32;37192;-86
2023/08/02 05:56:38;;;;;;;;;;;;;;;25.84;46.47;99658.28;5436519;32;34455;-88
2023/08/02 05:59:40;;;;;;;;;;;;;;;26.81;44.23;99657.81;5433057;32;34387;-89
2023/08/02 06:02:42;;;;;;;;;;;;;;;26.75;43.86;99664.75;5414568;32;34983;-90
2023/08/02 06:05:44;;;;;;;;;;;;;;;25.19;48.31;99674.59;5427883;32;37664;-90
2023/08/02 06:08:47;;;;;;;;;;;;;;;26.22;45.32;99676.41;5408946;32;36768;-89
2023/08/02 06:11:49;;;;;;;;;;;;;;;25.00;48.55;99665.03;5398487;32;35495;-89
2023/08/02 06:14:51;;;;;;;;;;;;;;;25.30;47.34;99673.37;5400115;32;35991;-87
2023/08/02 06:17:54;;;;;;;;;;;;;;;25.89;46.00;99669.34;5414113;32;34254;-90
2023/08/02 06:20:58;;;;;;;;;;;;;;;25.43;47.15;99672.84;5426804;32;34188;-89
2023/08/02 06:24:01;;;;;;;;;;;;;;;25.98;46.58;99678.22;5415192;32;34564;-90
2023/08/02 06:27:03;;;;;;;;;;;;;;;26.62;45.24;99675.31;5393152;32;34960;-89
2023/08/02 06:30:05;;;;;;;;;;;;;;;25.77;46.11;99689.59;5423894;32;35302;-89
2023/08/02 06:33:10;;;;;;;;;;;;;;;26.38;45.15;99682.50;5425527;32;35646;-89
2023/08/02 06:36:12;;;;;;;;;;;;;;;27.94;41.13;99688.13;5434431;32;34727;-88
2023/08/02 06:39:14;;;;;;;;;;;;;;;28.89;38.58;99681.66;5432571;32;34425;-90
2023/08/02 06:42:16;;;;;;;;;;;;;;;28.34;40.15;99688.63;5420132;32;34417;-92
2023/08/02 06:45:18;;;;;;;;;;;;;;;28.49;40.20;99697.50;5412605;32;34386;-90
2023/08/02 06:48:23;;;;;;;;;;;;;;;26.62;43.08;99702.25;5414485;32;34432;-88
2023/08/02 06:51:25;;;;;;;;;;;;;;;27.98;41.12;99702.94;5410302;32;36513;-88
2023/08/02 06:54:27;;;;;;;;;;;;;;;27.45;41.93;99699.50;5410190;32;35391;-88
2023/08/02 06:57:31;;;;;;;;;;;;;;;28.14;40.66;99701.03;5407230;32;36430;-90
2023/08/02 07:00:33;;;;;;;;;;;;;;;28.20;40.43;99702.97;5413733;32;34251;-88
2023/08/02 07:03:35;;;;;;;;;;;;;;;27.25;41.75;99688.41;5416141;32;34914;-87
2023/08/02 07:06:37;;;;;;;;;;;;;;;29.85;36.90;99687.31;5418294;32;35683;-88
2023/08/02 07:10:05;;;;;;;;;;;;;;;28.17;39.97;99687.16;5475350;31;939771;-66
2023/08/02 07:13:08;;;;;;;;;;;;;;;28.48;39.83;99689.59;5488578;32;34035;-66
2023/08/02 07:16:10;;;;;;;;;;;;;;;29.53;37.37;99689.66;5482433;32;35175;-67
2023/08/02 07:19:12;;;;;;;;;;;;;;;27.61;41.43;99698.47;5469689;32;34273;-66
2023/08/02 07:22:17;;;;;;;;;;;;;;;29.27;37.91;99694.88;5489909;32;35121;-66
2023/08/02 07:25:19;;;;;;;;;;;;;;;29.06;39.08;99702.03;5473531;32;33380;-66
2023/08/02 07:28:21;;;;;;;;;;;;;;;29.97;37.00;99696.53;5485716;32;34538;-66
2023/08/02 07:31:23;;;;;;;;;;;;;;;31.08;35.19;99691.56;5486943;32;35255;-66
2023/08/02 07:34:25;;;;;;;;;;;;;;;31.01;34.43;99690.75;5487313;32;32907;-65
2023/08/02 07:37:27;;;;;;;;;;;;;;;29.56;37.11;99689.28;5480556;32;34229;-66
2023/08/02 07:40:29;;;;;;;;;;;;;;;31.00;34.27;99689.09;5486271;32;35292;-65
2023/08/02 07:43:31;;;;;;;;;;;;;;;32.00;31.99;99693.28;5482783;32;34398;-66
2023/08/02 07:46:35;;;;;;;;;;;;;;;31.44;32.55;99695.75;5480314;32;35725;-67
2023/08/02 07:49:39;;;;;;;;;;;;;;;31.60;32.63;99686.28;5483673;32;34453;-66
2023/08/02 07:52:41;;;;;;;;;;;;;;;29.60;36.43;99704.06;5484259;32;34562;-68
2023/08/02 07:55:43;;;;;;;;;;;;;;;31.37;31.97;99697.66;5488693;32;34082;-65
2023/08/02 07:58:47;;;;;;;;;;;;;;;30.53;32.25;99701.75;5482518;32;34138;-67
2023/08/02 08:01:51;;;;;;;;;;;;;;;29.65;34.03;99709.72;5487095;32;34274;-67
2023/08/02 08:04:53;;;;;;;;;;;;;;;31.40;30.78;99691.78;5486259;32;34299;-67
2023/08/02 08:07:59;;;;;;;;;;;;;;;29.10;35.35;99697.03;5483404;32;35103;-67
2023/08/02 08:11:01;;;;;;;;;;;;;;;31.41;32.30;99698.88;5472112;32;34088;-66
2023/08/02 08:14:03;;;;;;;;;;;;;;;31.48;30.41;99699.69;5476313;32;34216;-67
2023/08/02 08:17:07;;;;;;;;;;;;;;;32.30;29.31;99690.00;5480206;32;34312;-67
2023/08/02 08:20:09;;;;;;;;;;;;;;;29.94;32.01;99695.06;5478729;32;35737;-67
2023/08/02 08:23:11;;;;;;;;;;;;;;;29.20;33.67;99694.84;5473571;32;34018;-67
2023/08/02 08:26:14;;;;;;;;;;;;;;;30.15;31.54;99693.31;5475543;32;34980;-67
2023/08/02 08:29:17;;;;;;;;;;;;;;;33.15;27.26;99682.28;5469892;32;35820;-68
2023/08/02 08:32:20;;;;;;;;;;;;;;;32.15;28.42;99673.16;5473991;32;35631;-68
2023/08/02 08:35:24;;;;;;;;;;;;;;;32.79;27.68;99680.28;5468520;32;34717;-67
2023/08/02 08:38:30;;;;;;;;;;;;;;;32.17;29.42;99690.91;5473673;32;34287;-68
2023/08/02 08:41:32;;;;;;;;;;;;;;;31.88;30.18;99677.84;5472070;32;36050;-68
2023/08/02 08:44:37;;;;;;;;;;;;;;;32.20;29.91;99681.47;5471730;32;34517;-66
2023/08/02 08:47:39;;;;;;;;;;;;;;;31.39;30.32;99685.53;5458010;32;35624;-66
2023/08/02 08:50:45;;;;;;;;;;;;;;;33.44;27.12;99688.13;5447255;32;35523;-67
2023/08/02 08:53:47;;;;;;;;;;;;;;;32.85;27.31;99690.28;5472379;32;34047;-68
2023/08/02 08:56:49;;;;;;;;;;;;;;;30.80;30.44;99702.66;5458125;32;34162;-66
2023/08/02 08:59:51;;;;;;;;;;;;;;;30.78;29.89;99699.28;5412758;32;34276;-67
2023/08/02 09:02:53;;;;;;;;;;;;;;;30.45;31.23;99704.63;5430735;32;35511;-67
2023/08/02 09:06:02;;;;;;;;;;;;;;;30.03;31.15;99705.75;5427853;32;35036;-68
2023/08/02 09:09:06;;;;;;;;;;;;;;;31.26;29.90;99680.94;5417650;32;34161;-65
2023/08/02 09:12:09;;;;;;;;;;;;;;;31.49;29.59;99687.78;5437087;32;35281;-67
2023/08/02 09:15:11;;;;;;;;;;;;;;;31.30;29.85;99677.78;5437461;32;34121;-67
2023/08/02 09:18:14;;;;;;;;;;;;;;;31.72;29.49;99688.13;5429745;32;35185;-68
2023/08/02 09:21:22;;;;;;;;;;;;;;;30.15;30.52;99687.91;5436142;32;34109;-67
2023/08/02 09:24:31;;;;;;;;;;;;;;;29.95;31.61;99690.50;5429277;32;35568;-68
2023/08/02 09:27:35;;;;;;;;;;;;;;;30.41;30.49;99681.72;5411945;32;35394;-68
2023/08/02 09:30:40;;;;;;;;;;;;;;;31.85;28.47;99678.31;5435487;32;34267;-72
2023/08/02 09:33:49;;;;;;;;;;;;;;;32.64;27.15;99682.47;5405599;32;34233;-71
2023/08/02 09:36:51;;;;;;;;;;;;;;;34.13;25.83;99673.25;5433701;32;34966;-72
2023/08/02 09:39:53;;;;;;;;;;;;;;;32.56;27.52;99672.72;5431160;32;34207;-72
2023/08/02 09:42:56;;;;;;;;;;;;;;;33.92;25.96;99669.97;5438145;32;35715;-72
2023/08/02 09:45:58;;;;;;;;;;;;;;;31.99;27.53;99672.59;5428231;32;34699;-75
2023/08/02 09:49:01;;;;;;;;;;;;;;;32.46;25.60;99664.19;5428092;32;34710;-71
2023/08/02 09:52:03;;;;;;;;;;;;;;;34.38;22.46;99671.22;5437288;32;35401;-73
2023/08/02 09:55:06;;;;;;;;;;;;;;;33.81;23.72;99667.97;5427278;32;34177;-72
2023/08/02 09:58:08;;;;;;;;;;;;;;;34.43;24.09;99676.00;5426664;32;33970;-72
2023/08/02 10:01:10;;;;;;;;;;;;;;;35.29;22.22;99663.66;5431998;32;34158;-71
2023/08/02 10:04:12;;;;;;;;;;;;;;;33.96;23.57;99666.78;5416399;32;34503;-70
2023/08/02 10:07:14;;;;;;;;;;;;;;;33.63;24.46;99676.19;5426318;32;35796;-71
2023/08/02 10:10:22;;;;;;;;;;;;;;;34.42;22.46;99669.72;5429998;32;35490;-71
2023/08/02 10:13:27;;;;;;;;;;;;;;;34.59;22.91;99679.97;5437527;32;34606;-70
2023/08/02 10:16:29;;;;;;;;;;;;;;;32.58;25.30;99676.03;5428476;32;35164;-72
2023/08/02 10:19:33;;;;;;;;;;;;;;;31.77;26.59;99679.34;5436565;32;35491;-74
2023/08/02 10:22:36;;;;;;;;;;;;;;;32.25;25.43;99676.22;5419936;32;34223;-75
2023/08/02 10:25:40;;;;;;;;;;;;;;;33.28;24.62;99668.53;5421343;32;34229;-74
2023/08/02 10:28:42;;;;;;;;;;;;;;;32.79;23.77;99675.69;5431062;32;34288;-68
2023/08/02 10:31:44;;;;;;;;;;;;;;;32.57;24.20;99656.16;5410295;32;35585;-74
2023/08/02 10:34:50;;;;;;;;;;;;;;;31.96;25.00;99654.00;5430107;32;34256;-80
2023/08/02 10:37:55;;;;;;;;;;;;;;;32.28;25.46;99654.03;5406952;32;35431;-77
2023/08/02 10:41:04;;;;;;;;;;;;;;;34.22;22.90;99658.25;5423683;32;34552;-69
2023/08/02 10:44:13;;;;;;;;;;;;;;;33.22;23.44;99668.63;5406968;32;34419;-75
2023/08/02 10:47:25;;;;;;;;;;;;;;;33.07;24.60;99664.34;5417541;32;35300;-68
2023/08/02 10:50:44;;;;;;;;;;;;;;;33.18;24.58;99648.34;5420675;32;34206;-69
2023/08/02 10:54:07;;;;;;;;;;;;;;;32.18;25.46;99653.69;5410847;32;33853;-72
2023/08/02 10:57:09;;;;;;;;;;;;;;;31.46;27.01;99633.91;5434234;32;34257;-68
2023/08/02 11:00:13;;;;;;;;;;;;;;;33.85;23.80;99636.47;5420219;32;35104;-69
2023/08/02 11:03:27;;;;;;;;;;;;;;;33.04;24.98;99644.91;5433886;32;35440;-72
2023/08/02 11:06:29;;;;;;;;;;;;;;;33.27;24.48;99639.66;5434117;32;35114;-68
2023/08/02 11:09:36;;;;;;;;;;;;;;;32.67;25.07;99636.63;5430461;32;35239;-71
2023/08/02 11:12:38;;;;;;;;;;;;;;;31.42;26.25;99629.94;5434460;32;34654;-68
2023/08/02 11:15:41;;;;;;;;;;;;;;;32.64;24.53;99623.47;5433475;32;35291;-69
2023/08/02 11:18:50;;;;;;;;;;;;;;;32.41;24.85;99626.78;5433727;32;34247;-67
2023/08/02 11:21:53;;;;;;;;;;;;;;;34.78;22.39;99628.84;5432909;32;34512;-73
2023/08/02 11:24:58;;;;;;;;;;;;;;;33.31;23.87;99624.53;5426652;32;34226;-68
2023/08/02 11:28:04;;;;;;;;;;;;;;;33.06;24.29;99612.87;5426586;32;37263;-66
2023/08/02 11:31:07;;;;;;;;;;;;;;;33.21;23.72;99613.31;5427666;32;35345;-68
2023/08/02 11:34:15;;;;;;;;;;;;;;;32.55;24.55;99606.59;5433743;32;33449;-68
2023/08/02 11:37:19;;;;;;;;;;;;;;;34.06;23.14;99590.72;5431289;32;34285;-67
2023/08/02 11:40:22;;;;;;;;;;;;;;;33.71;23.70;99594.12;5429011;32;33998;-68
2023/08/02 11:43:38;;;;;;;;;;;;;;;33.04;24.29;99582.31;5434626;32;35271;-68
2023/08/02 11:46:42;;;;;;;;;;;;;;;33.72;22.92;99590.34;5434746;32;33076;-69
2023/08/02 11:49:51;;;;;;;;;;;;;;;33.88;22.49;99591.59;5433428;32;33634;-67
2023/08/02 11:53:09;;;;;;;;;;;;;;;32.75;24.01;99581.09;5434406;32;37063;-67
2023/08/02 11:56:12;;;;;;;;;;;;;;;36.34;19.77;99566.84;5437908;32;34197;-68
2023/08/02 11:59:14;;;;;;;;;;;;;;;32.56;22.50;99572.06;5430580;32;34100;-69
2023/08/02 12:02:29;;;;;;;;;;;;;;;33.64;21.06;99574.31;5423444;32;34063;-68
2023/08/02 12:05:31;;;;;;;;;;;;;;;33.10;21.55;99574.09;5422138;32;34933;-68
2023/08/02 12:08:33;;;;;;;;;;;;;;;34.59;19.74;99566.22;5422645;32;33850;-66
2023/08/02 12:11:35;;;;;;;;;;;;;;;31.40;22.67;99566.87;5429392;32;33001;-72
2023/08/02 12:14:38;;;;;;;;;;;;;;;33.31;21.41;99561.06;5442231;32;32859;-66
2023/08/02 12:17:40;;;;;;;;;;;;;;;34.66;20.42;99552.47;5425006;32;36154;-67
2023/08/02 12:20:43;;;;;;;;;;;;;;;34.65;20.83;99543.44;5429030;32;35093;-71
2023/08/02 12:23:46;;;;;;;;;;;;;;;36.08;20.11;99555.47;5438156;32;34832;-72
2023/08/02 12:26:48;;;;;;;;;;;;;;;34.51;21.09;99557.53;5420825;32;34671;-72
2023/08/02 12:29:50;;;;;;;;;;;;;;;36.19;18.97;99550.16;5436212;32;34824;-73
2023/08/02 12:32:52;;;;;;;;;;;;;;;35.99;19.05;99562.41;5438331;32;34220;-75
2023/08/02 12:35:55;;;;;;;;;;;;;;;33.54;21.73;99572.13;5431925;32;35229;-71
2023/08/02 12:39:00;;;;;;;;;;;;;;;31.90;23.78;99564.38;5422625;32;35488;-74
2023/08/02 12:42:02;;;;;;;;;;;;;;;33.62;21.61;99565.50;5441506;32;36612;-75
2023/08/02 12:45:05;;;;;;;;;;;;;;;30.90;25.17;99561.16;5441716;32;35593;-73
2023/08/02 12:48:18;;;;;;;;;;;;;;;31.17;25.10;99556.47;5442591;32;35251;-74
2023/08/02 12:51:20;;;;;;;;;;;;;;;30.71;25.34;99562.84;5423221;32;34137;-72
2023/08/02 12:54:22;;;;;;;;;;;;;;;30.87;23.67;99564.28;5443149;32;34583;-71
2023/08/02 12:57:24;;;;;;;;;;;;;;;30.87;24.51;99556.16;5441666;32;34413;-76
2023/08/02 13:00:26;;;;;;;;;;;;;;;30.44;25.02;99545.72;5433310;32;34096;-71
2023/08/02 13:03:28;;;;;;;;;;;;;;;31.14;24.34;99551.50;5433416;32;34555;-72
2023/08/02 13:06:30;;;;;;;;;;;;;;;30.88;24.40;99558.66;5436827;32;34326;-71
2023/08/02 13:09:39;;;;;;;;;;;;;;;29.23;26.80;99569.13;5441192;32;36009;-73
2023/08/02 13:12:41;;;;;;;;;;;;;;;29.25;27.02;99565.19;5432431;32;34471;-72
2023/08/02 13:15:44;;;;;;;;;;;;;;;28.95;27.77;99569.19;5438617;32;34666;-71
2023/08/02 13:18:46;;;;;;;;;;;;;;;29.53;26.86;99556.19;5426154;32;34801;-70
2023/08/02 13:21:51;;;;;;;;;;;;;;;29.05;28.40;99559.69;5437794;32;35525;-68
2023/08/02 13:24:53;;;;;;;;;;;;;;;29.61;26.91;99553.28;5446912;32;33353;-73
2023/08/02 13:27:55;;;;;;;;;;;;;;;30.12;25.41;99545.50;5442476;32;34867;-68
2023/08/02 13:30:58;;;;;;;;;;;;;;;29.90;25.62;99547.53;5436647;32;35330;-70
2023/08/02 13:34:02;;;;;;;;;;;;;;;30.42;24.78;99553.25;5437814;32;34155;-70
2023/08/02 13:37:05;;;;;;;;;;;;;;;29.76;26.20;99542.31;5437515;32;34261;-70
2023/08/02 13:40:07;;;;;;;;;;;;;;;30.91;24.64;99541.09;5435424;32;34587;-71
2023/08/02 13:43:09;;;;;;;;;;;;;;;29.72;26.30;99539.16;5423600;32;35337;-67
2023/08/02 13:46:11;;;;;;;;;;;;;;;30.20;25.98;99528.22;5432888;32;34262;-71
2023/08/02 13:49:13;;;;;;;;;;;;;;;30.82;25.05;99510.66;5439827;32;35278;-69
2023/08/02 13:52:17;;;;;;;;;;;;;;;30.61;25.40;99516.31;5435895;32;34277;-70
2023/08/02 13:55:19;;;;;;;;;;;;;;;29.74;27.58;99520.81;5425532;32;34240;-68
2023/08/02 13:58:23;;;;;;;;;;;;;;;30.26;27.27;99521.97;5440252;32;34676;-67
2023/08/02 14:01:25;;;;;;;;;;;;;;;30.19;26.88;99511.13;5439730;32;34917;-70
2023/08/02 14:04:27;;;;;;;;;;;;;;;29.22;28.59;99518.75;5436858;32;34820;-68
2023/08/02 14:07:29;;;;;;;;;;;;;;;29.32;28.52;99501.09;5439909;32;34747;-69
2023/08/02 14:10:32;;;;;;;;;;;;;;;29.72;27.89;99498.53;5433425;32;34908;-68
2023/08/02 14:13:34;;;;;;;;;;;;;;;29.04;27.85;99497.63;5428247;32;34299;-68
2023/08/02 14:16:37;;;;;;;;;;;;;;;29.94;27.09;99499.19;5438685;32;34909;-68
2023/08/02 14:19:38;;;;;;;;;;;;;;;28.52;28.49;99497.09;5434062;32;34724;-69
2023/08/02 14:22:41;;;;;;;;;;;;;;;28.99;28.32;99489.31;5443095;32;34913;-68
2023/08/02 14:25:43;;;;;;;;;;;;;;;29.83;27.01;99475.44;5434833;32;33347;-68
2023/08/02 14:28:45;;;;;;;;;;;;;;;30.21;26.54;99470.28;5432106;32;34758;-69
2023/08/02 14:31:47;;;;;;;;;;;;;;;29.24;28.28;99476.94;5424889;32;35320;-70
2023/08/02 14:34:49;;;;;;;;;;;;;;;29.48;27.91;99477.41;5429340;32;35074;-68
2023/08/02 14:37:51;;;;;;;;;;;;;;;29.36;27.98;99474.47;5436231;32;34577;-69
2023/08/02 14:40:53;;;;;;;;;;;;;;;30.28;26.84;99460.28;5431974;32;34442;-66
2023/08/02 14:43:55;;;;;;;;;;;;;;;29.27;28.34;99454.03;5442915;32;34770;-68
2023/08/02 14:46:57;;;;;;;;;;;;;;;29.70;28.07;99459.19;5440576;32;34885;-68
2023/08/02 14:49:59;;;;;;;;;;;;;;;29.59;28.19;99461.44;5440280;32;34756;-68
2023/08/02 14:53:01;;;;;;;;;;;;;;;29.04;29.08;99465.19;5440509;32;34406;-69
2023/08/02 14:56:03;;;;;;;;;;;;;;;28.79;29.54;99451.31;5434554;32;35904;-68
2023/08/02 14:59:05;;;;;;;;;;;;;;;29.15;29.34;99440.25;5438640;32;36041;-68
2023/08/02 15:02:07;;;;;;;;;;;;;;;28.95;29.72;99455.59;5440210;32;35621;-70
2023/08/02 15:05:09;;;;;;;;;;;;;;;28.80;30.23;99463.81;5443773;32;35550;-70
2023/08/02 15:08:11;;;;;;;;;;;;;;;29.60;29.25;99451.44;5434370;32;34251;-69
2023/08/02 15:11:13;;;;;;;;;;;;;;;29.35;29.69;99456.56;5438344;32;34285;-69
2023/08/02 15:14:15;;;;;;;;;;;;;;;28.63;30.81;99454.34;5439572;32;34573;-68
2023/08/02 15:17:17;;;;;;;;;;;;;;;29.09;30.56;99447.31;5444072;32;34594;-68
2023/08/02 15:20:19;;;;;;;;;;;;;;;28.97;30.86;99446.22;5442213;32;35030;-68
2023/08/02 15:23:21;;;;;;;;;;;;;;;28.77;31.50;99440.69;5438218;32;34428;-69
2023/08/02 15:26:23;;;;;;;;;;;;;;;28.85;30.79;99436.97;5441930;32;34616;-70
2023/08/02 15:29:25;;;;;;;;;;;;;;;28.75;31.17;99431.13;5438035;32;34066;-67
2023/08/02 15:32:27;;;;;;;;;;;;;;;28.45;31.99;99439.47;5444752;32;35072;-67
2023/08/02 15:35:31;;;;;;;;;;;;;;;29.21;30.78;99419.69;5439054;32;35391;-68
2023/08/02 15:38:33;;;;;;;;;;;;;;;29.29;30.29;99420.31;5445985;32;34677;-67
2023/08/02 15:41:35;;;;;;;;;;;;;;;29.07;30.82;99418.81;5453528;32;35930;-69
2023/08/02 15:44:37;;;;;;;;;;;;;;;29.30;30.70;99410.31;5438819;32;34323;-67
2023/08/02 15:47:39;;;;;;;;;;;;;;;29.25;30.57;99402.00;5434883;32;34940;-69
2023/08/02 15:50:41;;;;;;;;;;;;;;;28.93;29.98;99401.69;5423672;32;34717;-69
2023/08/02 15:53:43;;;;;;;;;;;;;;;29.55;28.82;99402.50;5444412;32;34083;-69
2023/08/02 15:56:46;;;;;;;;;;;;;;;29.13;29.56;99401.75;5439601;32;35385;-68